Lintong, China
Current Conditions -  °F | °C
As of 9:00 AM on Tuesday 25 Nov 2014 (Local Time) from ZLXY Reporting Station
Moderate Fog Moderate Fog  
Wind Chill: 43°   Ceiling: 5000
Heat Index: 43°   Visibility: 0.56mi
Dew Point: 43°   Wind: 2mph
Humidity: 100%   Direction: NA
Pressure: 30.15"   Gusts: NA
Location:  34.37°N, 109.2°E
Report Text: ZLXY 250100Z VRB01MPS 0900 R05L/1200N R05R/1500D FGFEW010OVC050 06/06 Q1021 BECMG TL0250 1500 BR
Loading
Personal Weather Stations






























Interactive Weather Map New forecast layout! Learn more

10-Day Weather Forecast

Advertisements
Track Severe Weather on mobile